KILM

Wilmington International Airport

Airport
ICAO code
KILM
Summary
ICAO Region
NAM
ICAO Territory
Location

Wilmington, North Carolina,

Coordinates
34° 16' 0" N , 77° 54' 37" W
KCC
Metar
KILM 300753Z AUTO 01008KT 10SM CLR 20/13 A2997 RMK AO2 SLP149 T02000133

Description

Wilmington International Airport is a public use airport located just north of Wilmington, a city in New Hanover County, North Carolina.

Climatology

Humid “subtropical” climate (Köppen climate classification Cfa) - characterized by hot, humid summers and cool winters. Significant amounts of precipitation occur in all seasons in most areas. Winter rainfall (and sometimes snowfall) is associated with large storms that the westerlies steer from west to east. Most summer rainfall occurs during thunderstorms and occasional tropical storms (hurricanes).

Airport map

Aerial View

SKYbrary Partners:

Safety knowledge contributed by: